Wetterdaten: Montag, 23.02.2015
Datum Zeit Auen-Temp. Temp. -10 cm Luftfeuchte Luftfeuchte Luftdruck Regen Wind Richtung Richtung Taupunkt Windchill Windben
23.02.2015 00:00 -2,0 C 1,1 C 86 % 86 % 1011,6 hPa 0,0 l/m 0,0 km/h (0 Bft) N-NW 337 -4,0 C -2,6 C 0,0 km/h (0 Bft)
23.02.2015 00:05 -2,0 C 1,1 C 86 % 86 % 1011,6 hPa 0,0 l/m 0,0 km/h (0 Bft) N-NW 337 -4,0 C -2,6 C 0,0 km/h (0 Bft)
23.02.2015 00:10 -2,2 C 1,0 C 86 % 86 % 1011,6 hPa 0,0 l/m 0,0 km/h (0 Bft) N-NW 337 -4,2 C -2,8 C 0,0 km/h (0 Bft)
23.02.2015 00:15 -2,2 C 1,0 C 86 % 86 % 1011,2 hPa 0,0 l/m 0,0 km/h (0 Bft) N-NW 337 -4,2 C -2,9 C 0,0 km/h (0 Bft)
23.02.2015 00:20 -2,2 C 1,0 C 86 % 86 % 1011,2 hPa 0,0 l/m 0,0 km/h (0 Bft) W-SW 247 -4,2 C -3,0 C 0,0 km/h (0 Bft)
23.02.2015 00:25 -2,1 C 1,0 C 86 % 86 % 1011,2 hPa 0,0 l/m 0,0 km/h (0 Bft) W-SW 247 -4,1 C -2,9 C 0,0 km/h (0 Bft)
23.02.2015 00:30 -2,0 C 1,0 C 86 % 86 % 1011,2 hPa 0,0 l/m 0,0 km/h (0 Bft) O-SO 112 -4,0 C -2,8 C 0,0 km/h (0 Bft)
23.02.2015 00:35 -2,0 C 1,1 C 86 % 86 % 1011,4 hPa 0,0 l/m 0,0 km/h (0 Bft) O-SO 112 -4,0 C -2,7 C 0,0 km/h (0 Bft)
23.02.2015 00:40 -2,0 C 1,1 C 86 % 86 % 1011,4 hPa 0,0 l/m 0,0 km/h (0 Bft) NO 45 -4,0 C -2,5 C 0,0 km/h (0 Bft)
23.02.2015 00:45 -1,9 C 1,1 C 86 % 86 % 1011,4 hPa 0,0 l/m 0,0 km/h (0 Bft) SW 225 -3,9 C -2,5 C 0,0 km/h (0 Bft)
23.02.2015 00:50 -1,7 C 1,1 C 86 % 86 % 1011,4 hPa 0,0 l/m 1,8 km/h (1 Bft) SW 225 -3,7 C -2,4 C 5,8 km/h (2 Bft)
23.02.2015 00:55 -1,7 C 1,1 C 86 % 86 % 1011,6 hPa 0,0 l/m 1,9 km/h (1 Bft) S-SO 157 -3,7 C -2,3 C 0,0 km/h (0 Bft)
23.02.2015 01:00 -1,9 C 1,1 C 86 % 86 % 1011,6 hPa 0,0 l/m 0,5 km/h (0 Bft) W-SW 247 -3,9 C -2,4 C 0,0 km/h (0 Bft)
23.02.2015 01:05 -1,8 C 1,1 C 86 % 86 % 1011,6 hPa 0,0 l/m 0,0 km/h (0 Bft) SW 225 -3,8 C -2,4 C 0,0 km/h (0 Bft)
23.02.2015 01:10 -2,0 C 1,1 C 86 % 86 % 1011,6 hPa 0,0 l/m 0,0 km/h (0 Bft) O-SO 112 -4,0 C -2,5 C 0,0 km/h (0 Bft)
23.02.2015 01:15 -2,0 C 1,1 C 86 % 86 % 1011,4 hPa 0,0 l/m 0,0 km/h (0 Bft) O-SO 112 -4,0 C -2,5 C 0,0 km/h (0 Bft)
23.02.2015 01:20 -2,1 C 1,1 C 86 % 86 % 1011,4 hPa 0,0 l/m 0,0 km/h (0 Bft) O-SO 112 -4,1 C -2,7 C 0,0 km/h (0 Bft)
23.02.2015 01:25 -2,2 C 1,1 C 86 % 86 % 1011,4 hPa 0,0 l/m 0,0 km/h (0 Bft) O-SO 112 -4,2 C -2,7 C 0,0 km/h (0 Bft)
23.02.2015 01:30 -2,0 C 1,1 C 86 % 86 % 1011,4 hPa 0,0 l/m 0,0 km/h (0 Bft) S-SO 157 -4,0 C -2,7 C 0,0 km/h (0 Bft)
23.02.2015 01:35 -2,0 C 1,1 C 86 % 86 % 1011,0 hPa 0,0 l/m 0,2 km/h (0 Bft) S 180 -4,0 C -2,6 C 1,8 km/h (1 Bft)
23.02.2015 01:40 -2,0 C 1,1 C 86 % 86 % 1011,0 hPa 0,0 l/m 0,2 km/h (0 Bft) SO 135 -4,0 C -2,7 C 0,0 km/h (0 Bft)
23.02.2015 01:45 -2,1 C 1,0 C 86 % 86 % 1011,0 hPa 0,0 l/m 0,0 km/h (0 Bft) S-SO 157 -4,1 C -2,7 C 0,0 km/h (0 Bft)
23.02.2015 01:50 -2,1 C 1,0 C 86 % 86 % 1011,0 hPa 0,0 l/m 0,0 km/h (0 Bft) O 90 -4,1 C -2,8 C 0,0 km/h (0 Bft)
23.02.2015 01:55 -2,2 C 1,0 C 86 % 86 % 1010,6 hPa 0,0 l/m 0,0 km/h (0 Bft) S-SO 157 -4,2 C -2,8 C 0,0 km/h (0 Bft)
23.02.2015 02:00 -2,4 C 1,0 C 86 % 86 % 1010,6 hPa 0,0 l/m 0,0 km/h (0 Bft) W-SW 247 -4,4 C -2,8 C 0,0 km/h (0 Bft)
23.02.2015 02:05 -2,4 C 1,0 C 86 % 86 % 1010,6 hPa 0,0 l/m 0,0 km/h (0 Bft) W-SW 247 -4,4 C -3,0 C 0,0 km/h (0 Bft)
23.02.2015 02:10 -2,3 C 1,0 C 86 % 86 % 1010,6 hPa 0,0 l/m 0,0 km/h (0 Bft) S 180 -4,3 C -2,9 C 0,0 km/h (0 Bft)
23.02.2015 02:15 -2,2 C 1,0 C 86 % 86 % 1010,4 hPa 0,0 l/m 0,0 km/h (0 Bft) SW 225 -4,2 C -2,8 C 0,0 km/h (0 Bft)
23.02.2015 02:20 -2,1 C 1,0 C 86 % 86 % 1010,4 hPa 0,0 l/m 0,0 km/h (0 Bft) W 270 -4,1 C -2,8 C 0,0 km/h (0 Bft)
23.02.2015 02:25 -2,1 C 1,1 C 86 % 86 % 1010,4 hPa 0,0 l/m 0,2 km/h (0 Bft) W 270 -4,1 C -2,8 C 2,1 km/h (1 Bft)
23.02.2015 02:30 -2,1 C 1,1 C 86 % 86 % 1010,4 hPa 0,0 l/m 0,2 km/h (0 Bft) W 270 -4,1 C -2,8 C 0,0 km/h (0 Bft)
23.02.2015 02:35 -2,2 C 1,1 C 86 % 86 % 1010,3 hPa 0,0 l/m 0,2 km/h (0 Bft) SO 135 -4,2 C -2,7 C 0,0 km/h (0 Bft)
23.02.2015 02:40 -2,1 C 1,1 C 86 % 86 % 1010,3 hPa 0,0 l/m 0,0 km/h (0 Bft) S-SO 157 -4,1 C -2,7 C 0,0 km/h (0 Bft)
23.02.2015 02:45 -2,2 C 1,1 C 86 % 86 % 1010,3 hPa 0,0 l/m 0,0 km/h (0 Bft) S 180 -4,2 C -2,7 C 0,0 km/h (0 Bft)
23.02.2015 02:50 -2,3 C 1,0 C 86 % 86 % 1010,3 hPa 0,0 l/m 0,0 km/h (0 Bft) O 90 -4,3 C -2,8 C 0,0 km/h (0 Bft)
23.02.2015 02:55 -2,4 C 1,0 C 86 % 86 % 1010,2 hPa 0,0 l/m 0,0 km/h (0 Bft) O-SO 112 -4,4 C -2,9 C 0,0 km/h (0 Bft)
23.02.2015 03:00 -2,4 C 1,0 C 86 % 86 % 1010,2 hPa 0,0 l/m 0,0 km/h (0 Bft) S-SW 202 -4,4 C -3,1 C 0,0 km/h (0 Bft)
23.02.2015 03:05 -2,4 C 1,0 C 86 % 86 % 1010,2 hPa 0,0 l/m 0,0 km/h (0 Bft) S-SW 202 -4,4 C -3,1 C 0,0 km/h (0 Bft)
23.02.2015 03:10 -2,4 C 1,0 C 86 % 86 % 1010,2 hPa 0,0 l/m 0,0 km/h (0 Bft) S-SO 157 -4,4 C -3,0 C 0,0 km/h (0 Bft)
23.02.2015 03:15 -2,3 C 1,0 C 86 % 86 % 1009,8 hPa 0,0 l/m 0,0 km/h (0 Bft) SO 135 -4,3 C -2,9 C 0,0 km/h (0 Bft)
23.02.2015 03:20 -2,2 C 1,0 C 87 % 87 % 1009,8 hPa 0,0 l/m 0,0 km/h (0 Bft) O-SO 112 -4,1 C -2,9 C 0,0 km/h (0 Bft)
23.02.2015 03:25 -2,3 C 1,0 C 86 % 86 % 1009,8 hPa 0,0 l/m 0,0 km/h (0 Bft) SW 225 -4,3 C -2,9 C 0,0 km/h (0 Bft)
23.02.2015 03:30 -2,4 C 1,0 C 86 % 86 % 1009,8 hPa 0,0 l/m 0,0 km/h (0 Bft) N-NO 22 -4,4 C -3,0 C 0,0 km/h (0 Bft)
23.02.2015 03:35 -2,7 C 1,0 C 86 % 86 % 1009,5 hPa 0,0 l/m 0,0 km/h (0 Bft) N-NO 22 -4,7 C -3,2 C 0,0 km/h (0 Bft)
23.02.2015 03:40 -3,2 C 1,0 C 86 % 86 % 1009,5 hPa 0,0 l/m 0,0 km/h (0 Bft) O-NO 67 -5,2 C -3,6 C 0,0 km/h (0 Bft)
23.02.2015 03:45 -3,5 C 1,0 C 86 % 86 % 1009,5 hPa 0,0 l/m 0,0 km/h (0 Bft) S 180 -5,5 C -3,9 C 0,0 km/h (0 Bft)
23.02.2015 03:50 -3,7 C 1,0 C 86 % 86 % 1009,5 hPa 0,0 l/m 0,0 km/h (0 Bft) SO 135 -5,7 C -4,5 C 0,0 km/h (0 Bft)
23.02.2015 03:55 -3,7 C 1,0 C 86 % 86 % 1009,1 hPa 0,0 l/m 0,0 km/h (0 Bft) S 180 -5,7 C -4,6 C 0,0 km/h (0 Bft)
23.02.2015 04:00 -3,5 C 1,0 C 86 % 86 % 1009,1 hPa 0,0 l/m 0,5 km/h (0 Bft) SO 135 -5,5 C -4,6 C 1,6 km/h (1 Bft)
23.02.2015 04:05 -3,6 C 1,0 C 86 % 86 % 1009,1 hPa 0,0 l/m 0,5 km/h (0 Bft) SW 225 -5,6 C -4,6 C 0,0 km/h (0 Bft)
23.02.2015 04:10 -3,9 C 1,0 C 86 % 86 % 1009,1 hPa 0,0 l/m 0,5 km/h (0 Bft) S-SO 157 -5,9 C -4,7 C 0,0 km/h (0 Bft)
23.02.2015 04:15 -3,8 C 1,0 C 86 % 86 % 1009,3 hPa 0,0 l/m 0,6 km/h (0 Bft) SO 135 -5,8 C -4,7 C 1,9 km/h (1 Bft)
23.02.2015 04:20 -4,0 C 1,0 C 86 % 86 % 1009,3 hPa 0,0 l/m 0,2 km/h (0 Bft) O-SO 112 -6,0 C -4,9 C 0,0 km/h (0 Bft)
23.02.2015 04:25 -4,0 C 1,0 C 86 % 86 % 1009,3 hPa 0,0 l/m 0,2 km/h (0 Bft) SO 135 -6,0 C -4,9 C 0,0 km/h (0 Bft)
23.02.2015 04:30 -4,3 C 1,0 C 86 % 86 % 1009,3 hPa 0,0 l/m 0,0 km/h (0 Bft) W-SW 247 -6,3 C -5,2 C 0,0 km/h (0 Bft)
23.02.2015 04:35 -4,3 C 1,0 C 86 % 86 % 1008,8 hPa 0,0 l/m 0,2 km/h (0 Bft) S 180 -6,3 C -5,5 C 3,7 km/h (1 Bft)
23.02.2015 04:40 -4,2 C 1,1 C 86 % 86 % 1008,8 hPa 0,0 l/m 0,8 km/h (0 Bft) SO 135 -6,2 C -5,3 C 0,0 km/h (0 Bft)
23.02.2015 04:45 -4,1 C 1,1 C 86 % 86 % 1008,8 hPa 0,0 l/m 1,1 km/h (1 Bft) S 180 -6,1 C -5,2 C 2,3 km/h (1 Bft)
23.02.2015 04:50 -5,2 C 1,1 C 86 % 86 % 1008,8 hPa 0,0 l/m 0,5 km/h (0 Bft) O-NO 67 -7,2 C -5,5 C 0,0 km/h (0 Bft)
23.02.2015 04:55 -5,7 C 1,1 C 86 % 86 % 1008,6 hPa 0,0 l/m 0,3 km/h (0 Bft) S-SW 202 -7,7 C -6,1 C 0,0 km/h (0 Bft)
23.02.2015 05:00 -5,8 C 1,1 C 86 % 86 % 1008,6 hPa 0,0 l/m 0,0 km/h (0 Bft) S 180 -7,8 C -6,8 C 0,0 km/h (0 Bft)
23.02.2015 05:05 -5,4 C 1,1 C 86 % 86 % 1008,6 hPa 0,0 l/m 0,0 km/h (0 Bft) SO 135 -7,4 C -6,9 C 0,0 km/h (0 Bft)
23.02.2015 05:10 -5,1 C 1,1 C 86 % 86 % 1008,6 hPa 0,0 l/m 0,0 km/h (0 Bft) SO 135 -7,1 C -6,5 C 0,0 km/h (0 Bft)
23.02.2015 05:15 -5,3 C 1,1 C 86 % 86 % 1008,4 hPa 0,0 l/m 0,0 km/h (0 Bft) S 180 -7,3 C -6,5 C 0,0 km/h (0 Bft)
23.02.2015 05:20 -5,4 C 1,1 C 86 % 86 % 1008,4 hPa 0,0 l/m 0,2 km/h (0 Bft) S-SO 157 -7,4 C -6,8 C 0,0 km/h (0 Bft)
23.02.2015 05:25 -6,2 C 1,1 C 85 % 85 % 1008,4 hPa 0,0 l/m 0,2 km/h (0 Bft) O-SO 112 -8,3 C -6,9 C 0,0 km/h (0 Bft)
23.02.2015 05:30 -6,3 C 1,1 C 85 % 85 % 1008,4 hPa 0,0 l/m 0,0 km/h (0 Bft) SO 135 -8,4 C -7,3 C 0,0 km/h (0 Bft)
23.02.2015 05:35 -6,6 C 1,1 C 85 % 85 % 1008,7 hPa 0,0 l/m 0,0 km/h (0 Bft) SO 135 -8,7 C -7,6 C 0,0 km/h (0 Bft)
23.02.2015 05:40 -6,6 C 1,1 C 85 % 85 % 1008,7 hPa 0,0 l/m 0,0 km/h (0 Bft) S-SO 157 -8,7 C -7,8 C 0,0 km/h (0 Bft)
23.02.2015 05:45 -6,6 C 1,1 C 85 % 85 % 1008,7 hPa 0,0 l/m 0,0 km/h (0 Bft) SO 135 -8,7 C -7,8 C 0,0 km/h (0 Bft)
23.02.2015 05:50 -6,7 C 1,1 C 85 % 85 % 1008,7 hPa 0,0 l/m 0,0 km/h (0 Bft) O-SO 112 -8,8 C -7,8 C 0,0 km/h (0 Bft)
23.02.2015 05:55 -6,7 C 1,1 C 85 % 85 % 1008,6 hPa 0,0 l/m 0,0 km/h (0 Bft) NO 45 -8,8 C -7,7 C 0,0 km/h (0 Bft)
23.02.2015 06:00 -7,0 C 1,1 C 85 % 85 % 1008,6 hPa 0,0 l/m 0,0 km/h (0 Bft) S-SO 157 -9,1 C -7,8 C 0,0 km/h (0 Bft)
23.02.2015 06:05 -6,5 C 1,1 C 85 % 85 % 1008,6 hPa 0,0 l/m 0,0 km/h (0 Bft) SO 135 -8,6 C -7,7 C 0,0 km/h (0 Bft)
23.02.2015 06:10 -5,9 C 1,1 C 85 % 85 % 1008,6 hPa 0,0 l/m 0,0 km/h (0 Bft) SO 135 -8,0 C -7,1 C 0,0 km/h (0 Bft)
23.02.2015 06:15 -5,9 C 1,1 C 85 % 85 % 1008,4 hPa 0,0 l/m 0,0 km/h (0 Bft) O-SO 112 -8,0 C -6,9 C 0,0 km/h (0 Bft)
23.02.2015 06:20 -6,0 C 1,1 C 85 % 85 % 1008,4 hPa 0,0 l/m 0,0 km/h (0 Bft) SW 225 -8,1 C -6,8 C 0,0 km/h (0 Bft)
23.02.2015 06:25 -6,3 C 1,1 C 85 % 85 % 1008,4 hPa 0,0 l/m 0,0 km/h (0 Bft) W-SW 247 -8,4 C -7,0 C 0,0 km/h (0 Bft)
23.02.2015 06:30 -7,2 C 1,1 C 84 % 84 % 1008,4 hPa 0,0 l/m 0,0 km/h (0 Bft) W 270 -9,4 C -7,5 C 0,0 km/h (0 Bft)
23.02.2015 06:35 -7,3 C 1,1 C 84 % 84 % 1008,2 hPa 0,0 l/m 0,0 km/h (0 Bft) S-SO 157 -9,5 C -7,9 C 0,0 km/h (0 Bft)
23.02.2015 06:40 -7,2 C 1,1 C 84 % 84 % 1008,2 hPa 0,0 l/m 0,0 km/h (0 Bft) O-NO 67 -9,4 C -8,0 C 0,0 km/h (0 Bft)
23.02.2015 06:45 -7,2 C 1,1 C 84 % 84 % 1008,2 hPa 0,0 l/m 0,0 km/h (0 Bft) W-SW 247 -9,4 C -8,0 C 0,0 km/h (0 Bft)
23.02.2015 06:50 -6,9 C 1,1 C 84 % 84 % 1008,2 hPa 0,0 l/m 0,0 km/h (0 Bft) NW 315 -9,1 C -8,1 C 0,0 km/h (0 Bft)
23.02.2015 06:55 -6,9 C 1,1 C 84 % 84 % 1008,0 hPa 0,0 l/m 0,0 km/h (0 Bft) NO 45 -9,1 C -8,1 C 0,0 km/h (0 Bft)
23.02.2015 07:00 -7,2 C 1,1 C 84 % 84 % 1008,0 hPa 0,0 l/m 0,0 km/h (0 Bft) O-SO 112 -9,4 C -8,2 C 0,0 km/h (0 Bft)
23.02.2015 07:05 -7,2 C 1,1 C 84 % 84 % 1008,0 hPa 0,0 l/m 0,0 km/h (0 Bft) O-SO 112 -9,4 C -8,2 C 0,0 km/h (0 Bft)
23.02.2015 07:10 -7,6 C 1,1 C 84 % 84 % 1008,0 hPa 0,0 l/m 0,0 km/h (0 Bft) O-SO 112 -9,8 C -8,5 C 0,0 km/h (0 Bft)
23.02.2015 07:15 -7,2 C 1,1 C 84 % 84 % 1007,9 hPa 0,0 l/m 0,0 km/h (0 Bft) O-SO 112 -9,4 C -8,5 C 0,0 km/h (0 Bft)
23.02.2015 07:20 -6,8 C 1,1 C 84 % 84 % 1007,9 hPa 0,0 l/m 0,0 km/h (0 Bft) W 270 -9,0 C -8,3 C 0,0 km/h (0 Bft)
23.02.2015 07:25 -7,1 C 1,1 C 84 % 84 % 1007,9 hPa 0,0 l/m 0,0 km/h (0 Bft) W-SW 247 -9,3 C -8,3 C 0,0 km/h (0 Bft)
23.02.2015 07:30 -7,1 C 1,1 C 84 % 84 % 1007,9 hPa 0,0 l/m 0,0 km/h (0 Bft) S 180 -9,3 C -8,3 C 0,0 km/h (0 Bft)
23.02.2015 07:35 -7,3 C 1,1 C 84 % 84 % 1007,9 hPa 0,0 l/m 0,0 km/h (0 Bft) S-SO 157 -9,5 C -8,3 C 0,0 km/h (0 Bft)
23.02.2015 07:40 -7,2 C 1,1 C 84 % 84 % 1007,9 hPa 0,0 l/m 0,0 km/h (0 Bft) SW 225 -9,4 C -8,3 C 0,0 km/h (0 Bft)
23.02.2015 07:45 -6,5 C 1,1 C 84 % 84 % 1007,9 hPa 0,0 l/m 0,0 km/h (0 Bft) S 180 -8,7 C -8,1 C 1,6 km/h (1 Bft)
23.02.2015 07:50 -6,3 C 1,1 C 84 % 84 % 1007,9 hPa 0,0 l/m 0,5 km/h (0 Bft) SW 225 -8,5 C -7,5 C 0,0 km/h (0 Bft)
23.02.2015 07:55 -6,3 C 1,1 C 84 % 84 % 1007,9 hPa 0,0 l/m 0,6 km/h (0 Bft) S-SO 157 -8,5 C -7,4 C 0,0 km/h (0 Bft)
23.02.2015 08:00 -6,2 C 1,1 C 84 % 84 % 1007,9 hPa 0,0 l/m 0,2 km/h (0 Bft) S-SO 157 -8,4 C -7,2 C 0,0 km/h (0 Bft)
23.02.2015 08:05 -6,2 C 1,1 C 84 % 84 % 1007,9 hPa 0,0 l/m 0,0 km/h (0 Bft) W-SW 247 -8,4 C -7,2 C 0,0 km/h (0 Bft)
23.02.2015 08:10 -6,5 C 1,1 C 84 % 84 % 1007,9 hPa 0,0 l/m 0,0 km/h (0 Bft) O-SO 112 -8,7 C -7,1 C 0,0 km/h (0 Bft)
23.02.2015 08:15 -6,7 C 1,1 C 84 % 84 % 1007,6 hPa 0,0 l/m 0,0 km/h (0 Bft) SO 135 -8,9 C -7,1 C 0,0 km/h (0 Bft)
23.02.2015 08:20 -6,6 C 1,1 C 84 % 84 % 1007,6 hPa 0,0 l/m 0,0 km/h (0 Bft) SO 135 -8,8 C -7,1 C 0,0 km/h (0 Bft)
23.02.2015 08:25 -6,5 C 1,1 C 84 % 84 % 1007,6 hPa 0,0 l/m 0,0 km/h (0 Bft) O-NO 67 -8,7 C -7,1 C 0,0 km/h (0 Bft)
23.02.2015 08:30 -6,5 C 1,1 C 84 % 84 % 1007,6 hPa 0,0 l/m 0,0 km/h (0 Bft) S-SO 157 -8,7 C -7,1 C 0,0 km/h (0 Bft)
23.02.2015 08:35 -6,2 C 1,1 C 84 % 84 % 1007,2 hPa 0,0 l/m 0,0 km/h (0 Bft) W-SW 247 -8,4 C -7,0 C 0,0 km/h (0 Bft)
23.02.2015 08:40 -6,0 C 1,1 C 84 % 84 % 1007,2 hPa 0,0 l/m 0,0 km/h (0 Bft) W-SW 247 -8,3 C -7,0 C 0,0 km/h (0 Bft)
23.02.2015 08:45 -5,8 C 1,1 C 84 % 84 % 1007,2 hPa 0,0 l/m 0,0 km/h (0 Bft) SO 135 -8,1 C -6,8 C 0,0 km/h (0 Bft)
23.02.2015 08:50 -5,8 C 1,1 C 84 % 84 % 1007,2 hPa 0,0 l/m 0,0 km/h (0 Bft) W-SW 247 -8,1 C -6,7 C 0,0 km/h (0 Bft)
23.02.2015 08:55 -5,7 C 1,1 C 84 % 84 % 1006,8 hPa 0,0 l/m 0,0 km/h (0 Bft) SW 225 -8,0 C -6,5 C 0,0 km/h (0 Bft)
23.02.2015 09:00 -5,4 C 1,1 C 84 % 84 % 1006,8 hPa 0,0 l/m 0,0 km/h (0 Bft) S 180 -7,7 C -6,2 C 0,0 km/h (0 Bft)
23.02.2015 09:05 -5,2 C 1,1 C 84 % 84 % 1006,8 hPa 0,0 l/m 0,0 km/h (0 Bft) W-SW 247 -7,5 C -6,0 C 0,0 km/h (0 Bft)
23.02.2015 09:10 -4,8 C 1,1 C 84 % 84 % 1006,8 hPa 0,0 l/m 0,2 km/h (0 Bft) S 180 -7,1 C -5,7 C 0,0 km/h (0 Bft)
23.02.2015 09:15 -4,4 C 1,2 C 85 % 85 % 1006,5 hPa 0,0 l/m 0,2 km/h (0 Bft) S-SW 202 -6,5 C -5,4 C 0,0 km/h (0 Bft)
23.02.2015 09:20 -4,4 C 1,2 C 85 % 85 % 1006,5 hPa 0,0 l/m 0,0 km/h (0 Bft) S 180 -6,5 C -5,1 C 0,0 km/h (0 Bft)
23.02.2015 09:25 -4,2 C 1,2 C 85 % 85 % 1006,5 hPa 0,0 l/m 0,0 km/h (0 Bft) S 180 -6,3 C -4,9 C 0,0 km/h (0 Bft)
23.02.2015 09:30 -3,8 C 1,1 C 85 % 85 % 1006,5 hPa 0,0 l/m 0,0 km/h (0 Bft) S 180 -5,9 C -4,4 C 0,0 km/h (0 Bft)
23.02.2015 09:35 -3,6 C 1,1 C 85 % 85 % 1006,4 hPa 0,0 l/m 0,0 km/h (0 Bft) SO 135 -5,7 C -4,2 C 0,0 km/h (0 Bft)
23.02.2015 09:40 -3,2 C 1,1 C 85 % 85 % 1006,4 hPa 0,0 l/m 0,0 km/h (0 Bft) SO 135 -5,4 C -3,6 C 0,0 km/h (0 Bft)
23.02.2015 09:45 -2,9 C 1,1 C 85 % 85 % 1006,4 hPa 0,0 l/m 0,0 km/h (0 Bft) S-SO 157 -5,1 C -2,9 C 0,0 km/h (0 Bft)
23.02.2015 09:50 -2,8 C 1,1 C 85 % 85 % 1006,4 hPa 0,0 l/m 0,0 km/h (0 Bft) S 180 -5,0 C -2,4 C 0,0 km/h (0 Bft)
23.02.2015 09:55 -2,5 C 1,1 C 85 % 85 % 1006,6 hPa 0,0 l/m 0,0 km/h (0 Bft) S-SO 157 -4,7 C -1,9 C 0,0 km/h (0 Bft)
23.02.2015 10:00 -2,2 C 1,1 C 85 % 85 % 1006,6 hPa 0,0 l/m 0,2 km/h (0 Bft) SO 135 -4,4 C -1,5 C 0,0 km/h (0 Bft)
23.02.2015 10:05 -1,8 C 1,1 C 85 % 85 % 1006,6 hPa 0,0 l/m 0,2 km/h (0 Bft) S-SO 157 -4,0 C -1,3 C 0,0 km/h (0 Bft)
23.02.2015 10:10 -1,2 C 1,1 C 86 % 86 % 1006,6 hPa 0,0 l/m 0,0 km/h (0 Bft) SO 135 -3,2 C -0,9 C 0,0 km/h (0 Bft)
23.02.2015 10:15 -1,1 C 1,1 C 86 % 86 % 1006,9 hPa 0,0 l/m 0,0 km/h (0 Bft) SO 135 -3,1 C -0,7 C 0,0 km/h (0 Bft)
23.02.2015 10:20 -0,5 C 1,1 C 86 % 86 % 1006,9 hPa 0,0 l/m 0,0 km/h (0 Bft) S 180 -2,5 C 1,7 C 0,0 km/h (0 Bft)
23.02.2015 10:25 0,0 C 1,1 C 86 % 86 % 1006,9 hPa 0,0 l/m 0,0 km/h (0 Bft) S-SO 157 -2,1 C 4,0 C 0,0 km/h (0 Bft)
23.02.2015 10:30 1,0 C 1,0 C 86 % 86 % 1006,9 hPa 0,0 l/m 0,0 km/h (0 Bft) SO 135 -1,1 C 7,2 C 0,0 km/h (0 Bft)
23.02.2015 10:35 1,5 C 1,1 C 86 % 86 % 1007,3 hPa 0,0 l/m 0,0 km/h (0 Bft) SO 135 -0,6 C 7,6 C 0,0 km/h (0 Bft)
23.02.2015 10:40 2,1 C 1,1 C 86 % 86 % 1007,3 hPa 0,0 l/m 0,0 km/h (0 Bft) S 180 0,0 C 7,3 C 0,0 km/h (0 Bft)
23.02.2015 10:45 2,2 C 1,1 C 86 % 86 % 1007,3 hPa 0,0 l/m 0,0 km/h (0 Bft) S 180 0,1 C 7,6 C 0,0 km/h (0 Bft)
23.02.2015 10:50 3,3 C 1,1 C 87 % 87 % 1007,3 hPa 0,0 l/m 0,0 km/h (0 Bft) SO 135 1,3 C 8,2 C 0,0 km/h (0 Bft)
23.02.2015 10:55 4,3 C 1,1 C 87 % 87 % 1007,6 hPa 0,0 l/m 0,0 km/h (0 Bft) N-NO 22 2,3 C 8,4 C 0,0 km/h (0 Bft)
23.02.2015 11:00 5,6 C 1,1 C 87 % 87 % 1007,6 hPa 0,0 l/m 0,0 km/h (0 Bft) S-SW 202 3,6 C 11,6 C 0,0 km/h (0 Bft)
23.02.2015 11:05 5,8 C 1,0 C 87 % 87 % 1007,6 hPa 0,0 l/m 0,0 km/h (0 Bft) SW 225 3,8 C 13,9 C 0,0 km/h (0 Bft)
23.02.2015 11:10 6,5 C 1,1 C 86 % 86 % 1007,6 hPa 0,0 l/m 0,2 km/h (0 Bft) W 270 4,3 C 14,3 C 2,1 km/h (1 Bft)
23.02.2015 11:15 6,5 C 1,1 C 84 % 84 % 1008,2 hPa 0,0 l/m 1,0 km/h (0 Bft) S-SO 157 4,0 C 13,5 C 1,9 km/h (1 Bft)
23.02.2015 11:20 6,8 C 1,1 C 83 % 83 % 1008,2 hPa 0,0 l/m 1,0 km/h (0 Bft) S-SW 202 4,1 C 12,6 C 0,0 km/h (0 Bft)
23.02.2015 11:25 7,5 C 1,1 C 81 % 81 % 1008,2 hPa 0,0 l/m 0,2 km/h (0 Bft) W-SW 247 4,5 C 12,1 C 0,0 km/h (0 Bft)
23.02.2015 11:30 8,7 C 1,1 C 79 % 79 % 1008,2 hPa 0,0 l/m 0,0 km/h (0 Bft) O-SO 112 5,3 C 12,7 C 0,0 km/h (0 Bft)
23.02.2015 11:35 9,5 C 1,1 C 78 % 78 % 1007,6 hPa 0,0 l/m 0,0 km/h (0 Bft) SO 135 5,9 C 13,4 C 0,0 km/h (0 Bft)
23.02.2015 11:40 10,4 C 1,1 C 77 % 77 % 1007,6 hPa 0,0 l/m 0,0 km/h (0 Bft) S-SO 157 6,5 C 15,1 C 0,0 km/h (0 Bft)
23.02.2015 11:45 10,4 C 1,0 C 75 % 75 % 1007,6 hPa 0,0 l/m 0,0 km/h (0 Bft) S-SW 202 6,2 C 16,2 C 0,0 km/h (0 Bft)
23.02.2015 11:50 9,7 C 1,0 C 73 % 73 % 1007,6 hPa 0,0 l/m 0,2 km/h (0 Bft) SW 225 5,1 C 15,8 C 0,0 km/h (0 Bft)
23.02.2015 11:55 9,1 C 1,0 C 71 % 71 % 1007,3 hPa 0,0 l/m 0,3 km/h (0 Bft) W 270 4,1 C 14,8 C 0,0 km/h (0 Bft)
23.02.2015 12:00 9,3 C 1,0 C 71 % 71 % 1007,3 hPa 0,0 l/m 0,2 km/h (0 Bft) N-NO 22 4,3 C 13,9 C 0,0 km/h (0 Bft)
23.02.2015 12:05 9,5 C 1,0 C 71 % 71 % 1007,3 hPa 0,0 l/m 0,2 km/h (0 Bft) O-SO 112 4,5 C 13,7 C 0,0 km/h (0 Bft)
23.02.2015 12:10 10,0 C 1,0 C 69 % 69 % 1007,3 hPa 0,0 l/m 0,2 km/h (0 Bft) O-SO 112 4,6 C 13,9 C 1,9 km/h (1 Bft)
23.02.2015 12:15 9,0 C 1,0 C 69 % 69 % 1006,6 hPa 0,0 l/m 0,2 km/h (0 Bft) S-SO 157 3,6 C 13,3 C 0,0 km/h (0 Bft)
23.02.2015 12:20 8,3 C 1,1 C 69 % 69 % 1006,6 hPa 0,0 l/m 0,2 km/h (0 Bft) O-SO 112 3,0 C 12,3 C 0,0 km/h (0 Bft)
23.02.2015 12:25 8,9 C 1,1 C 70 % 70 % 1006,6 hPa 0,0 l/m 0,0 km/h (0 Bft) S-SW 202 3,7 C 11,9 C 0,0 km/h (0 Bft)
23.02.2015 12:30 8,6 C 1,1 C 69 % 69 % 1006,6 hPa 0,0 l/m 0,0 km/h (0 Bft) S 180 3,2 C 11,8 C 0,0 km/h (0 Bft)
23.02.2015 12:35 8,3 C 1,1 C 69 % 69 % 1006,0 hPa 0,0 l/m 0,0 km/h (0 Bft) SO 135 3,0 C 11,7 C 0,0 km/h (0 Bft)
23.02.2015 12:40 7,5 C 1,1 C 68 % 68 % 1006,0 hPa 0,0 l/m 0,0 km/h (0 Bft) SO 135 2,0 C 11,0 C 0,0 km/h (0 Bft)
23.02.2015 12:45 7,1 C 1,1 C 69 % 69 % 1006,0 hPa 0,0 l/m 0,0 km/h (0 Bft) O-SO 112 1,8 C 10,4 C 0,0 km/h (0 Bft)
23.02.2015 12:50 6,8 C 1,1 C 69 % 69 % 1006,0 hPa 0,0 l/m 0,2 km/h (0 Bft) S 180 1,5 C 9,6 C 0,0 km/h (0 Bft)
23.02.2015 12:55 7,1 C 1,1 C 69 % 69 % 1005,6 hPa 0,0 l/m 0,3 km/h (0 Bft) SO 135 1,8 C 9,3 C 0,0 km/h (0 Bft)
23.02.2015 13:00 7,2 C 1,1 C 70 % 70 % 1005,6 hPa 0,0 l/m 0,3 km/h (0 Bft) S 180 2,1 C 9,6 C 0,0 km/h (0 Bft)
23.02.2015 13:05 7,1 C 1,1 C 71 % 71 % 1005,6 hPa 0,0 l/m 0,2 km/h (0 Bft) O-SO 112 2,2 C 9,5 C 0,0 km/h (0 Bft)
23.02.2015 13:10 7,0 C 1,1 C 72 % 72 % 1005,6 hPa 0,0 l/m 0,0 km/h (0 Bft) W 270 2,3 C 9,4 C 0,0 km/h (0 Bft)
23.02.2015 13:15 7,1 C 1,1 C 71 % 71 % 1005,4 hPa 0,0 l/m 0,2 km/h (0 Bft) S-SO 157 2,2 C 9,5 C 1,6 km/h (1 Bft)
23.02.2015 13:20 6,8 C 1,1 C 72 % 72 % 1005,4 hPa 0,0 l/m 0,2 km/h (0 Bft) S 180 2,1 C 9,3 C 0,0 km/h (0 Bft)
23.02.2015 13:25 6,8 C 1,1 C 72 % 72 % 1005,4 hPa 0,0 l/m 0,2 km/h (0 Bft) SO 135 2,1 C 9,1 C 0,0 km/h (0 Bft)
23.02.2015 13:30 6,1 C 1,0 C 73 % 73 % 1005,4 hPa 0,0 l/m 0,3 km/h (0 Bft) S-SO 157 1,6 C 8,5 C 0,0 km/h (0 Bft)
23.02.2015 13:35 5,7 C 1,0 C 74 % 74 % 1005,4 hPa 0,0 l/m 0,5 km/h (0 Bft) SO 135 1,4 C 8,0 C 2,1 km/h (1 Bft)
23.02.2015 13:40 5,3 C 1,0 C 75 % 75 % 1005,4 hPa 0,0 l/m 0,2 km/h (0 Bft) S-SO 157 1,2 C 7,3 C 0,0 km/h (0 Bft)
23.02.2015 13:45 5,0 C 1,0 C 76 % 76 % 1005,4 hPa 0,0 l/m 0,3 km/h (0 Bft) SO 135 1,1 C 6,7 C 1,8 km/h (1 Bft)
23.02.2015 13:50 4,8 C 1,1 C 76 % 76 % 1005,4 hPa 0,0 l/m 1,0 km/h (0 Bft) SO 135 0,9 C 6,2 C 0,0 km/h (0 Bft)
23.02.2015 13:55 4,9 C 1,1 C 77 % 77 % 1005,2 hPa 0,0 l/m 1,3 km/h (1 Bft) SO 135 1,2 C 5,9 C 3,1 km/h (1 Bft)
23.02.2015 14:00 4,8 C 1,1 C 77 % 77 % 1005,2 hPa 0,0 l/m 1,3 km/h (1 Bft) S-SO 157 1,1 C 5,8 C 3,1 km/h (1 Bft)
23.02.2015 14:05 4,7 C 1,1 C 78 % 78 % 1005,2 hPa 0,0 l/m 1,4 km/h (1 Bft) W-SW 247 1,2 C 5,8 C 0,0 km/h (0 Bft)
23.02.2015 14:10 4,7 C 1,1 C 78 % 78 % 1005,2 hPa 0,0 l/m 1,0 km/h (0 Bft) S 180 1,2 C 5,8 C 0,0 km/h (0 Bft)
23.02.2015 14:15 4,6 C 1,1 C 78 % 78 % 1004,9 hPa 0,0 l/m 1,0 km/h (0 Bft) S-SO 157 1,1 C 5,7 C 2,3 km/h (1 Bft)
23.02.2015 14:20 4,4 C 1,1 C 78 % 78 % 1004,9 hPa 0,0 l/m 1,3 km/h (1 Bft) SO 135 0,9 C 5,6 C 4,3 km/h (1 Bft)
23.02.2015 14:25 4,1 C 1,1 C 79 % 79 % 1004,9 hPa 0,0 l/m 1,8 km/h (1 Bft) S 180 0,8 C 5,3 C 2,7 km/h (1 Bft)
23.02.2015 14:30 3,8 C 1,1 C 79 % 79 % 1004,9 hPa 0,0 l/m 1,9 km/h (1 Bft) O-NO 67 0,5 C 5,0 C 0,0 km/h (0 Bft)
23.02.2015 14:35 3,8 C 1,1 C 79 % 79 % 1005,2 hPa 0,0 l/m 1,0 km/h (0 Bft) SW 225 0,5 C 4,6 C 1,9 km/h (1 Bft)
23.02.2015 14:40 3,6 C 1,1 C 79 % 79 % 1005,2 hPa 0,0 l/m 1,4 km/h (1 Bft) S-SO 157 0,3 C 4,5 C 0,0 km/h (0 Bft)
23.02.2015 14:45 3,6 C 1,1 C 79 % 79 % 1005,2 hPa 0,0 l/m 1,9 km/h (1 Bft) SO 135 0,3 C 4,2 C 3,1 km/h (1 Bft)
23.02.2015 14:50 3,4 C 1,1 C 80 % 80 % 1005,2 hPa 0,0 l/m 1,4 km/h (1 Bft) S-SO 157 0,3 C 4,0 C 0,0 km/h (0 Bft)
23.02.2015 14:55 3,4 C 1,1 C 80 % 80 % 1005,2 hPa 0,0 l/m 1,0 km/h (0 Bft) S-SO 157 0,3 C 4,0 C 0,0 km/h (0 Bft)
23.02.2015 15:00 3,6 C 1,1 C 80 % 80 % 1005,2 hPa 0,0 l/m 0,2 km/h (0 Bft) SO 135 0,5 C 4,0 C 0,0 km/h (0 Bft)
23.02.2015 15:05 3,7 C 1,1 C 80 % 80 % 1005,2 hPa 0,0 l/m 0,0 km/h (0 Bft) S-SW 202 0,6 C 4,1 C 0,0 km/h (0 Bft)
23.02.2015 15:10 3,7 C 1,1 C 80 % 80 % 1005,2 hPa 0,0 l/m 0,2 km/h (0 Bft) SO 135 0,6 C 4,2 C 2,9 km/h (1 Bft)
23.02.2015 15:15 3,7 C 1,1 C 80 % 80 % 1005,5 hPa 0,0 l/m 0,8 km/h (0 Bft) S 180 0,6 C 4,3 C 2,1 km/h (1 Bft)
23.02.2015 15:20 3,6 C 1,1 C 81 % 81 % 1005,5 hPa 0,0 l/m 0,8 km/h (0 Bft) S-SO 157 0,7 C 4,2 C 0,0 km/h (0 Bft)
23.02.2015 15:25 3,7 C 1,1 C 81 % 81 % 1005,5 hPa 0,0 l/m 0,8 km/h (0 Bft) S 180 0,7 C 4,1 C 2,7 km/h (1 Bft)
23.02.2015 15:30 3,8 C 1,1 C 80 % 80 % 1005,5 hPa 0,0 l/m 1,1 km/h (1 Bft) S 180 0,7 C 4,0 C 2,1 km/h (1 Bft)
23.02.2015 15:35 3,8 C 1,1 C 80 % 80 % 1005,5 hPa 0,0 l/m 1,6 km/h (1 Bft) S-SW 202 0,7 C 4,0 C 3,1 km/h (1 Bft)
23.02.2015 15:40 3,6 C 1,1 C 79 % 79 % 1005,5 hPa 0,0 l/m 2,3 km/h (1 Bft) W-SW 247 0,3 C 4,0 C 3,9 km/h (1 Bft)
23.02.2015 15:45 3,5 C 1,1 C 79 % 79 % 1005,5 hPa 0,0 l/m 2,6 km/h (1 Bft) S-SW 202 0,2 C 3,9 C 2,4 km/h (1 Bft)
23.02.2015 15:50 3,4 C 1,1 C 79 % 79 % 1005,5 hPa 0,0 l/m 3,5 km/h (1 Bft) S 180 0,1 C 2,9 C 7,2 km/h (2 Bft)
23.02.2015 15:55 3,3 C 1,1 C 79 % 79 % 1005,6 hPa 0,0 l/m 3,5 km/h (1 Bft) SW 225 0,0 C 2,8 C 4,3 km/h (1 Bft)
23.02.2015 16:00 3,4 C 1,1 C 79 % 79 % 1005,6 hPa 0,0 l/m 3,2 km/h (1 Bft) W-SW 247 0,1 C 3,0 C 3,4 km/h (1 Bft)
23.02.2015 16:05 3,2 C 1,1 C 79 % 79 % 1005,6 hPa 0,0 l/m 3,1 km/h (1 Bft) W-SW 247 -0,1 C 3,1 C 3,4 km/h (1 Bft)
23.02.2015 16:10 3,2 C 1,1 C 79 % 79 % 1005,6 hPa 0,0 l/m 2,3 km/h (1 Bft) SW 225 -0,1 C 3,3 C 3,5 km/h (1 Bft)
23.02.2015 16:15 3,2 C 1,1 C 80 % 80 % 1005,8 hPa 0,0 l/m 2,3 km/h (1 Bft) SW 225 0,1 C 3,3 C 4,3 km/h (1 Bft)
23.02.2015 16:20 3,1 C 1,1 C 80 % 80 % 1005,8 hPa 0,0 l/m 3,1 km/h (1 Bft) W-SW 247 -0,0 C 3,1 C 3,7 km/h (1 Bft)
23.02.2015 16:25 3,0 C 1,1 C 80 % 80 % 1005,8 hPa 0,0 l/m 3,1 km/h (1 Bft) S-SW 202 -0,1 C 3,1 C 4,0 km/h (1 Bft)
23.02.2015 16:30 3,0 C 1,1 C 81 % 81 % 1005,8 hPa 0,0 l/m 2,3 km/h (1 Bft) S-SW 202 0,1 C 3,1 C 0,0 km/h (0 Bft)
23.02.2015 16:35 3,0 C 1,1 C 81 % 81 % 1005,9 hPa 0,0 l/m 1,6 km/h (1 Bft) S 180 0,1 C 3,1 C 1,6 km/h (1 Bft)
23.02.2015 16:40 2,9 C 1,1 C 81 % 81 % 1005,9 hPa 0,0 l/m 1,6 km/h (1 Bft) S 180 -0,0 C 3,1 C 1,6 km/h (1 Bft)
23.02.2015 16:45 2,8 C 1,1 C 81 % 81 % 1005,9 hPa 0,0 l/m 1,9 km/h (1 Bft) S 180 -0,1 C 3,0 C 3,2 km/h (1 Bft)
23.02.2015 16:50 2,8 C 1,1 C 81 % 81 % 1005,9 hPa 0,0 l/m 2,4 km/h (1 Bft) S 180 -0,1 C 2,9 C 2,6 km/h (1 Bft)
23.02.2015 16:55 2,7 C 1,1 C 82 % 82 % 1005,9 hPa 0,0 l/m 2,7 km/h (1 Bft) S 180 -0,1 C 2,7 C 4,2 km/h (1 Bft)
23.02.2015 17:00 2,7 C 1,1 C 82 % 82 % 1005,9 hPa 0,0 l/m 2,7 km/h (1 Bft) SW 225 -0,1 C 2,4 C 3,4 km/h (1 Bft)
23.02.2015 17:05 2,7 C 1,1 C 82 % 82 % 1005,9 hPa 0,0 l/m 2,9 km/h (1 Bft) S-SW 202 -0,1 C 2,2 C 4,2 km/h (1 Bft)
23.02.2015 17:10 2,7 C 1,1 C 82 % 82 % 1005,9 hPa 0,0 l/m 3,4 km/h (1 Bft) SW 225 -0,1 C 1,8 C 6,3 km/h (2 Bft)
23.02.2015 17:15 2,5 C 1,1 C 82 % 82 % 1006,0 hPa 0,0 l/m 2,7 km/h (1 Bft) SW 225 -0,3 C 2,1 C 2,3 km/h (1 Bft)
23.02.2015 17:20 2,3 C 1,1 C 82 % 82 % 1006,0 hPa 0,0 l/m 1,0 km/h (0 Bft) W 270 -0,4 C 1,9 C 1,6 km/h (1 Bft)
23.02.2015 17:25 2,3 C 1,1 C 82 % 82 % 1006,0 hPa 0,0 l/m 0,8 km/h (0 Bft) S-SO 157 -0,4 C 1,8 C 2,9 km/h (1 Bft)
23.02.2015 17:30 2,3 C 1,1 C 83 % 83 % 1006,0 hPa 0,0 l/m 2,1 km/h (1 Bft) S-SW 202 -0,3 C 1,7 C 3,2 km/h (1 Bft)
23.02.2015 17:35 2,4 C 1,1 C 83 % 83 % 1005,9 hPa 0,0 l/m 2,7 km/h (1 Bft) S 180 -0,2 C 1,6 C 3,2 km/h (1 Bft)
23.02.2015 17:40 2,4 C 1,1 C 83 % 83 % 1005,9 hPa 0,0 l/m 3,2 km/h (1 Bft) S 180 -0,2 C 1,3 C 5,8 km/h (2 Bft)
23.02.2015 17:45 2,4 C 1,1 C 84 % 84 % 1005,9 hPa 0,0 l/m 3,5 km/h (1 Bft) S 180 -0,0 C 1,1 C 3,9 km/h (1 Bft)
23.02.2015 17:50 2,2 C 1,1 C 84 % 84 % 1005,9 hPa 0,0 l/m 2,7 km/h (1 Bft) S-SO 157 -0,2 C 1,6 C 0,0 km/h (0 Bft)
23.02.2015 17:55 2,2 C 1,1 C 84 % 84 % 1006,1 hPa 0,0 l/m 2,6 km/h (1 Bft) S 180 -0,2 C 1,7 C 4,3 km/h (1 Bft)
23.02.2015 18:00 2,2 C 1,1 C 84 % 84 % 1006,1 hPa 0,0 l/m 2,6 km/h (1 Bft) S 180 -0,2 C 1,7 C 2,9 km/h (1 Bft)
23.02.2015 18:05 2,1 C 1,1 C 84 % 84 % 1006,1 hPa 0,0 l/m 1,9 km/h (1 Bft) O-SO 112 -0,3 C 1,7 C 0,0 km/h (0 Bft)
23.02.2015 18:10 2,0 C 1,1 C 84 % 84 % 1006,1 hPa 0,0 l/m 1,0 km/h (0 Bft) S-SO 157 -0,4 C 1,6 C 0,0 km/h (0 Bft)
23.02.2015 18:15 2,0 C 1,1 C 85 % 85 % 1006,1 hPa 0,0 l/m 1,0 km/h (0 Bft) SW 225 -0,3 C 1,6 C 4,7 km/h (1 Bft)
23.02.2015 18:20 2,1 C 1,1 C 85 % 85 % 1006,1 hPa 0,0 l/m 1,0 km/h (0 Bft) SO 135 -0,2 C 1,6 C 2,7 km/h (1 Bft)
23.02.2015 18:25 2,1 C 1,1 C 85 % 85 % 1006,1 hPa 0,0 l/m 1,9 km/h (1 Bft) W-SW 247 -0,2 C 1,7 C 2,7 km/h (1 Bft)
23.02.2015 18:30 2,1 C 1,1 C 85 % 85 % 1006,1 hPa 0,0 l/m 2,3 km/h (1 Bft) SW 225 -0,2 C 1,6 C 4,0 km/h (1 Bft)
23.02.2015 18:35 1,9 C 1,1 C 85 % 85 % 1006,1 hPa 0,0 l/m 1,3 km/h (1 Bft) SO 135 -0,3 C 1,6 C 0,0 km/h (0 Bft)
23.02.2015 18:40 1,8 C 1,1 C 85 % 85 % 1006,1 hPa 0,0 l/m 0,3 km/h (0 Bft) O 90 -0,4 C 1,4 C 0,0 km/h (0 Bft)
23.02.2015 18:45 1,7 C 1,1 C 85 % 85 % 1006,1 hPa 0,0 l/m 0,0 km/h (0 Bft) O 90 -0,5 C 1,3 C 0,0 km/h (0 Bft)
23.02.2015 18:50 1,7 C 1,1 C 85 % 85 % 1006,1 hPa 0,0 l/m 0,0 km/h (0 Bft) O-SO 112 -0,5 C 1,3 C 0,0 km/h (0 Bft)
23.02.2015 18:55 1,7 C 1,1 C 85 % 85 % 1005,9 hPa 0,0 l/m 0,0 km/h (0 Bft) S 180 -0,5 C 1,3 C 0,0 km/h (0 Bft)
23.02.2015 19:00 1,7 C 1,1 C 85 % 85 % 1005,9 hPa 0,0 l/m 0,2 km/h (0 Bft) SW 225 -0,5 C 1,2 C 4,2 km/h (1 Bft)
23.02.2015 19:05 1,9 C 1,1 C 86 % 86 % 1005,9 hPa 0,0 l/m 0,5 km/h (0 Bft) SW 225 -0,2 C 1,3 C 1,8 km/h (1 Bft)
23.02.2015 19:10 1,8 C 1,1 C 86 % 86 % 1005,9 hPa 0,0 l/m 1,0 km/h (0 Bft) S 180 -0,3 C 1,3 C 2,7 km/h (1 Bft)
23.02.2015 19:15 1,7 C 1,1 C 86 % 86 % 1005,9 hPa 0,0 l/m 1,0 km/h (0 Bft) SO 135 -0,4 C 1,3 C 0,0 km/h (0 Bft)
23.02.2015 19:20 1,6 C 1,1 C 86 % 86 % 1005,9 hPa 0,0 l/m 0,8 km/h (0 Bft) SO 135 -0,5 C 1,3 C 0,0 km/h (0 Bft)
23.02.2015 19:25 1,5 C 1,1 C 86 % 86 % 1005,9 hPa 0,0 l/m 0,3 km/h (0 Bft) O-SO 112 -0,6 C 1,2 C 1,6 km/h (1 Bft)
23.02.2015 19:30 1,6 C 1,1 C 86 % 86 % 1005,9 hPa 0,0 l/m 0,3 km/h (0 Bft) O-SO 112 -0,5 C 1,1 C 0,0 km/h (0 Bft)
23.02.2015 19:35 1,6 C 1,1 C 86 % 86 % 1006,1 hPa 0,0 l/m 0,3 km/h (0 Bft) S-SW 202 -0,5 C 1,1 C 0,0 km/h (0 Bft)
23.02.2015 19:40 1,6 C 1,1 C 86 % 86 % 1006,1 hPa 0,0 l/m 0,0 km/h (0 Bft) S 180 -0,5 C 1,1 C 0,0 km/h (0 Bft)
23.02.2015 19:45 1,6 C 1,1 C 86 % 86 % 1006,1 hPa 0,0 l/m 0,6 km/h (0 Bft) SO 135 -0,5 C 1,1 C 3,1 km/h (1 Bft)
23.02.2015 19:50 1,6 C 1,1 C 86 % 86 % 1006,1 hPa 0,0 l/m 1,0 km/h (0 Bft) S-SO 157 -0,5 C 1,1 C 0,0 km/h (0 Bft)
23.02.2015 19:55 1,6 C 1,1 C 87 % 87 % 1006,1 hPa 0,0 l/m 1,1 km/h (1 Bft) SO 135 -0,3 C 1,2 C 2,7 km/h (1 Bft)
23.02.2015 20:00 1,9 C 1,1 C 87 % 87 % 1006,1 hPa 0,0 l/m 1,6 km/h (1 Bft) S-SW 202 -0,0 C 1,3 C 3,7 km/h (1 Bft)
23.02.2015 20:05 2,0 C 1,1 C 87 % 87 % 1006,1 hPa 0,0 l/m 2,1 km/h (1 Bft) SO 135 0,1 C 1,5 C 0,0 km/h (0 Bft)
23.02.2015 20:10 1,9 C 1,1 C 87 % 87 % 1006,1 hPa 0,0 l/m 1,6 km/h (1 Bft) SO 135 -0,0 C 1,5 C 0,0 km/h (0 Bft)
23.02.2015 20:15 2,0 C 1,1 C 87 % 87 % 1006,0 hPa 0,0 l/m 1,3 km/h (1 Bft) SO 135 0,1 C 1,5 C 1,6 km/h (1 Bft)
23.02.2015 20:20 2,0 C 1,1 C 87 % 87 % 1006,0 hPa 0,0 l/m 1,4 km/h (1 Bft) S-SO 157 0,1 C 1,6 C 0,0 km/h (0 Bft)
23.02.2015 20:25 2,0 C 1,1 C 87 % 87 % 1006,0 hPa 0,0 l/m 1,3 km/h (1 Bft) S 180 0,1 C 1,6 C 2,4 km/h (1 Bft)
23.02.2015 20:30 2,0 C 1,1 C 87 % 87 % 1006,0 hPa 0,0 l/m 2,3 km/h (1 Bft) W-SW 247 0,1 C 1,7 C 0,0 km/h (0 Bft)
23.02.2015 20:35 2,1 C 1,1 C 87 % 87 % 1006,5 hPa 0,0 l/m 2,7 km/h (1 Bft) S 180 0,2 C 1,5 C 4,8 km/h (1 Bft)
23.02.2015 20:40 1,9 C 1,1 C 88 % 88 % 1006,5 hPa 0,0 l/m 2,4 km/h (1 Bft) S-SO 157 0,1 C 1,6 C 7,6 km/h (2 Bft)
23.02.2015 20:45 2,0 C 1,1 C 88 % 88 % 1006,5 hPa 0,0 l/m 2,9 km/h (1 Bft) SW 225 0,2 C 1,4 C 5,8 km/h (2 Bft)
23.02.2015 20:50 2,3 C 1,1 C 88 % 88 % 1006,5 hPa 0,0 l/m 2,7 km/h (1 Bft) S-SW 202 0,5 C 1,6 C 0,0 km/h (0 Bft)
23.02.2015 20:55 2,3 C 1,1 C 88 % 88 % 1006,6 hPa 0,0 l/m 2,7 km/h (1 Bft) S 180 0,5 C 1,6 C 4,5 km/h (1 Bft)
23.02.2015 21:00 2,4 C 1,1 C 88 % 88 % 1006,6 hPa 0,0 l/m 2,4 km/h (1 Bft) S-SO 157 0,6 C 1,8 C 3,2 km/h (1 Bft)
23.02.2015 21:05 2,3 C 1,1 C 88 % 88 % 1006,6 hPa 0,0 l/m 2,6 km/h (1 Bft) SW 225 0,5 C 1,8 C 0,0 km/h (0 Bft)
23.02.2015 21:10 2,2 C 1,1 C 88 % 88 % 1006,6 hPa 0,0 l/m 1,8 km/h (1 Bft) SO 135 0,4 C 1,7 C 2,9 km/h (1 Bft)
23.02.2015 21:15 2,1 C 1,1 C 88 % 88 % 1006,6 hPa 0,0 l/m 0,6 km/h (0 Bft) W-SW 247 0,3 C 1,7 C 0,0 km/h (0 Bft)
23.02.2015 21:20 2,1 C 1,1 C 88 % 88 % 1006,6 hPa 0,0 l/m 0,6 km/h (0 Bft) S 180 0,3 C 1,7 C 0,0 km/h (0 Bft)
23.02.2015 21:25 2,2 C 1,1 C 88 % 88 % 1006,6 hPa 0,0 l/m 0,8 km/h (0 Bft) SW 225 0,4 C 1,7 C 2,1 km/h (1 Bft)
23.02.2015 21:30 2,3 C 1,1 C 88 % 88 % 1006,6 hPa 0,0 l/m 2,1 km/h (1 Bft) S-SO 157 0,5 C 1,7 C 1,8 km/h (1 Bft)
23.02.2015 21:35 2,3 C 1,1 C 88 % 88 % 1006,9 hPa 0,0 l/m 2,1 km/h (1 Bft) S-SO 157 0,5 C 1,7 C 1,9 km/h (1 Bft)
23.02.2015 21:40 2,6 C 1,1 C 88 % 88 % 1006,9 hPa 0,0 l/m 2,3 km/h (1 Bft) S 180 0,8 C 1,7 C 4,2 km/h (1 Bft)
23.02.2015 21:45 2,8 C 1,1 C 88 % 88 % 1006,9 hPa 0,0 l/m 3,1 km/h (1 Bft) W-SW 247 1,0 C 1,4 C 4,2 km/h (1 Bft)
23.02.2015 21:50 3,0 C 1,1 C 88 % 88 % 1006,9 hPa 0,0 l/m 3,2 km/h (1 Bft) SW 225 1,2 C 1,7 C 4,7 km/h (1 Bft)
23.02.2015 21:55 3,0 C 1,1 C 88 % 88 % 1006,9 hPa 0,0 l/m 3,4 km/h (1 Bft) W-SW 247 1,2 C 1,8 C 4,5 km/h (1 Bft)
23.02.2015 22:00 3,1 C 1,1 C 88 % 88 % 1006,9 hPa 0,0 l/m 4,5 km/h (1 Bft) W-SW 247 1,3 C 1,2 C 12,6 km/h (3 Bft)
23.02.2015 22:05 3,1 C 1,1 C 88 % 88 % 1006,9 hPa 0,0 l/m 4,8 km/h (1 Bft) W-SW 247 1,3 C 1,1 C 6,3 km/h (2 Bft)
23.02.2015 22:10 3,1 C 1,1 C 87 % 87 % 1006,9 hPa 0,0 l/m 5,0 km/h (1 Bft) W-SW 247 1,2 C 1,0 C 13,7 km/h (3 Bft)
23.02.2015 22:15 3,2 C 1,1 C 87 % 87 % 1006,9 hPa 0,0 l/m 5,0 km/h (1 Bft) W-SW 247 1,2 C 1,0 C 6,6 km/h (2 Bft)
23.02.2015 22:20 3,4 C 1,1 C 87 % 87 % 1006,9 hPa 0,0 l/m 5,8 km/h (2 Bft) W-SW 247 1,4 C 0,7 C 11,3 km/h (2 Bft)
23.02.2015 22:25 3,5 C 1,1 C 87 % 87 % 1006,9 hPa 0,0 l/m 5,8 km/h (2 Bft) SW 225 1,5 C 0,8 C 8,0 km/h (2 Bft)
23.02.2015 22:30 3,4 C 1,1 C 86 % 86 % 1006,9 hPa 0,0 l/m 6,0 km/h (2 Bft) W 270 1,3 C 1,0 C 6,8 km/h (2 Bft)
23.02.2015 22:35 3,2 C 1,1 C 86 % 86 % 1006,9 hPa 0,0 l/m 5,0 km/h (1 Bft) SW 225 1,1 C 1,2 C 4,8 km/h (1 Bft)
23.02.2015 22:40 3,0 C 1,1 C 85 % 85 % 1006,9 hPa 0,0 l/m 2,9 km/h (1 Bft) SW 225 0,7 C 2,1 C 5,1 km/h (1 Bft)
23.02.2015 22:45 3,0 C 1,1 C 85 % 85 % 1006,9 hPa 0,0 l/m 2,7 km/h (1 Bft) W 270 0,7 C 2,1 C 3,4 km/h (1 Bft)
23.02.2015 22:50 3,0 C 1,1 C 85 % 85 % 1006,9 hPa 0,0 l/m 2,7 km/h (1 Bft) W-SW 247 0,7 C 1,9 C 2,4 km/h (1 Bft)
23.02.2015 22:55 3,0 C 1,1 C 85 % 85 % 1007,1 hPa 0,0 l/m 2,6 km/h (1 Bft) SW 225 0,7 C 2,0 C 1,9 km/h (1 Bft)
23.02.2015 23:00 3,0 C 1,1 C 85 % 85 % 1007,1 hPa 0,0 l/m 3,2 km/h (1 Bft) W-SW 247 0,7 C 1,6 C 5,8 km/h (2 Bft)
23.02.2015 23:05 2,9 C 1,1 C 85 % 85 % 1007,1 hPa 0,0 l/m 3,5 km/h (1 Bft) SW 225 0,6 C 1,3 C 4,5 km/h (1 Bft)
23.02.2015 23:10 2,9 C 1,0 C 85 % 85 % 1007,1 hPa 0,0 l/m 3,7 km/h (1 Bft) S 180 0,6 C 1,1 C 5,3 km/h (1 Bft)
23.02.2015 23:15 2,8 C 1,0 C 85 % 85 % 1006,8 hPa 0,0 l/m 3,9 km/h (1 Bft) S 180 0,5 C 0,9 C 6,0 km/h (2 Bft)
23.02.2015 23:20 2,9 C 1,0 C 85 % 85 % 1006,8 hPa 0,0 l/m 4,3 km/h (1 Bft) W-SW 247 0,6 C 0,7 C 4,8 km/h (1 Bft)
23.02.2015 23:25 2,8 C 1,0 C 85 % 85 % 1006,8 hPa 0,0 l/m 4,2 km/h (1 Bft) W-SW 247 0,5 C 0,8 C 3,4 km/h (1 Bft)
23.02.2015 23:30 2,9 C 1,0 C 85 % 85 % 1006,8 hPa 0,0 l/m 3,5 km/h (1 Bft) SW 225 0,6 C 1,2 C 3,9 km/h (1 Bft)
23.02.2015 23:35 2,8 C 1,0 C 85 % 85 % 1007,1 hPa 0,0 l/m 3,5 km/h (1 Bft) SW 225 0,5 C 1,2 C 6,8 km/h (2 Bft)
23.02.2015 23:40 2,8 C 1,0 C 85 % 85 % 1007,1 hPa 0,0 l/m 3,1 km/h (1 Bft) SW 225 0,5 C 1,4 C 3,5 km/h (1 Bft)
23.02.2015 23:45 2,7 C 1,0 C 85 % 85 % 1007,1 hPa 0,0 l/m 2,7 km/h (1 Bft) S 180 0,4 C 1,6 C 2,9 km/h (1 Bft)
23.02.2015 23:50 2,7 C 1,1 C 86 % 86 % 1007,1 hPa 0,0 l/m 3,2 km/h (1 Bft) S-SW 202 0,6 C 1,3 C 6,3 km/h (2 Bft)
23.02.2015 23:55 2,8 C 1,1 C 86 % 86 % 1007,6 hPa 0,0 l/m 4,2 km/h (1 Bft) O-NO 67 0,7 C 0,9 C 8,2 km/h (2 Bft)
_ Min-Zeit 07:10 23:45 12:40 12:40 14:30 - 19:40 - - 07:10 07:15 21:20
Minimum _ -7,6 C 1,0 C 68 % 68 % 1004,9 hPa - 0,0 km/h (0 Bft) - - -9,8 C -8,5 C 0,0 km/h (0 Bft)
_ Max-Zeit 11:45 09:25 22:05 22:05 01:10 23:55 22:30 - - 11:40 11:45 22:10
Maximum _ 10,4 C 1,2 C 88 % 88 % 1011,6 hPa 0,0 l/m 6,0 km/h
W (2 Bft)
- - 6,5 C 16,2 C 13,7 km/h
W-SW (3 Bft)
Durchschnitt _ 0,3 C 1,1 C 83 % 83 % 1007,4 hPa #0,0 l/m 1,0 km/h (0 Bft) S - -2,2 C 0,4 C 1,4 km/h (1 Bft)